Time;durP1;ratioP1;P1;durP2;ratioP2;P2;SDS_P1;SDS_P2;PMS_P1;PMS_P2;Temp;Humidity;BMP_temperature;BMP_pressure;BME280_temperature;BME280_humidity;BME280_pressure;Samples;Min_cycle;Max_cycle;Signal;HPM_P1;HPM_P2
2021/03/11 00:00:49;;;;;;;30.33;21.03;;;;;;;6.38;100.00;99848.22;4975592;28;20230;-67
2021/03/11 00:03:15;;;;;;;31.73;21.57;;;;;;;6.32;100.00;99837.69;4993022;28;20200;-67
2021/03/11 00:05:41;;;;;;;34.07;21.07;;;;;;;6.42;100.00;99843.09;4960082;28;20642;-68
2021/03/11 00:08:09;;;;;;;34.20;20.60;;;;;;;6.39;100.00;99833.69;4995983;28;20232;-67
2021/03/11 00:10:35;;;;;;;31.67;21.10;;;;;;;6.41;100.00;99841.47;5001220;28;20220;-67
2021/03/11 00:13:01;;;;;;;32.50;21.07;;;;;;;6.38;100.00;99840.13;4975587;28;20206;-67
2021/03/11 00:15:26;;;;;;;31.27;22.03;;;;;;;6.35;100.00;99827.16;4960068;28;20217;-67
2021/03/11 00:17:54;;;;;;;33.60;22.70;;;;;;;6.32;100.00;99824.22;4960924;28;20892;-68
2021/03/11 00:20:24;;;;;;;34.63;22.07;;;;;;;6.36;100.00;99817.22;4975650;28;20221;-68
2021/03/11 00:22:50;;;;;;;32.93;21.27;;;;;;;6.49;100.00;99816.72;4959646;28;20714;-68
2021/03/11 00:25:17;;;;;;;35.67;22.33;;;;;;;6.39;100.00;99813.97;4959695;28;20193;-67
2021/03/11 00:27:43;;;;;;;35.70;22.70;;;;;;;6.38;100.00;99798.88;4976396;28;20704;-67
2021/03/11 00:30:13;;;;;;;37.77;23.07;;;;;;;6.27;100.00;99797.22;4960126;28;20182;-68
2021/03/11 00:32:46;;;;;;;30.47;20.57;;;;;;;6.39;100.00;99787.00;4960375;28;20190;-69
2021/03/11 00:35:17;;;;;;;33.37;21.30;;;;;;;6.32;100.00;99789.97;4960764;28;20186;-68
2021/03/11 00:37:45;;;;;;;34.50;21.97;;;;;;;6.19;100.00;99778.84;4961442;28;20544;-67
2021/03/11 00:40:12;;;;;;;36.00;23.03;;;;;;;6.26;100.00;99779.41;4971811;28;20190;-68
2021/03/11 00:42:37;;;;;;;39.60;22.73;;;;;;;6.32;100.00;99773.78;5011219;28;20193;-67
2021/03/11 00:45:07;;;;;;;34.40;21.23;;;;;;;6.35;100.00;99762.44;4995264;28;20185;-67
2021/03/11 00:47:32;;;;;;;34.33;20.27;;;;;;;6.26;100.00;99747.91;4962923;28;20220;-70
2021/03/11 00:50:01;;;;;;;36.60;20.93;;;;;;;6.33;100.00;99758.41;4978726;28;20227;-66
2021/03/11 00:52:31;;;;;;;36.93;21.03;;;;;;;6.30;100.00;99738.19;4994891;28;20220;-68
2021/03/11 00:54:57;;;;;;;32.77;19.47;;;;;;;6.36;100.00;99736.31;4979477;28;20185;-69
2021/03/11 00:57:25;;;;;;;36.40;20.57;;;;;;;6.34;100.00;99727.69;4994140;28;20220;-70
2021/03/11 00:59:51;;;;;;;32.87;19.73;;;;;;;6.27;100.00;99713.66;4995140;28;20189;-69
2021/03/11 01:02:19;;;;;;;20.10;12.10;;;;;;;6.35;100.00;99716.63;4993554;28;20225;-69
2021/03/11 01:04:45;;;;;;;0.40;0.40;;;;;;;6.25;100.00;99707.72;4946865;28;20193;-69
2021/03/11 01:07:18;;;;;;;0.77;0.77;;;;;;;6.26;100.00;99712.84;4978322;28;20228;-69
2021/03/11 01:09:48;;;;;;;1.13;1.03;;;;;;;6.25;100.00;99702.34;4975118;28;20186;-69
2021/03/11 01:12:14;;;;;;;0.20;0.20;;;;;;;6.26;100.00;99693.16;4973146;28;20220;-68
2021/03/11 01:14:43;;;;;;;0.20;0.20;;;;;;;6.20;100.00;99683.44;4994789;28;20536;-69
2021/03/11 01:17:11;;;;;;;0.40;0.40;;;;;;;6.19;100.00;99671.03;4978220;28;20252;-69
2021/03/11 01:19:37;;;;;;;0.30;0.30;;;;;;;6.14;100.00;99661.06;5011188;28;20189;-69
2021/03/11 01:22:02;;;;;;;0.37;0.37;;;;;;;6.24;100.00;99658.38;4993304;28;20312;-69
2021/03/11 01:24:30;;;;;;;0.73;0.73;;;;;;;6.20;100.00;99653.78;4994789;28;20268;-68
2021/03/11 01:27:01;;;;;;;0.10;0.10;;;;;;;6.13;100.00;99639.75;5010196;28;20592;-69
2021/03/11 01:29:26;;;;;;;0.20;0.20;;;;;;;6.22;100.00;99624.69;4977777;28;20177;-68
2021/03/11 01:31:52;;;;;;;0.77;0.77;;;;;;;6.25;100.00;99613.38;4992979;28;20224;-69
2021/03/11 01:34:17;;;;;;;1.27;1.27;;;;;;;6.16;100.00;99596.13;4978265;28;20234;-68
2021/03/11 01:36:43;;;;;;;0.40;0.40;;;;;;;6.17;100.00;99595.00;4977504;28;20614;-69
2021/03/11 01:39:08;;;;;;;0.90;0.90;;;;;;;6.09;100.00;99574.00;4972378;28;20425;-69
2021/03/11 01:41:34;;;;;;;1.23;1.13;;;;;;;6.09;100.00;99557.84;4969427;28;20225;-68
2021/03/11 01:44:00;;;;;;;0.10;0.10;;;;;;;6.03;100.00;99553.53;4977739;28;20193;-69
2021/03/11 01:46:26;;;;;;;0.87;0.87;;;;;;;5.96;100.00;99546.78;5009972;28;20645;-68
2021/03/11 01:48:52;;;;;;;0.47;0.47;;;;;;;6.02;100.00;99549.22;4961338;28;20268;-68
2021/03/11 01:51:21;;;;;;;0.77;0.77;;;;;;;6.09;100.00;99530.88;4974744;28;20244;-70
2021/03/11 01:53:49;;;;;;;0.30;0.30;;;;;;;6.04;100.00;99522.78;4942404;28;20660;-68
2021/03/11 01:56:15;;;;;;;0.97;0.97;;;;;;;6.02;100.00;99508.78;4974130;28;20217;-68
2021/03/11 01:58:40;;;;;;;0.20;0.20;;;;;;;6.00;100.00;99505.56;4942586;28;20205;-70
2021/03/11 02:01:06;;;;;;;2.47;2.27;;;;;;;6.06;100.00;99480.22;4957643;28;20312;-68
2021/03/11 02:03:31;;;;;;;1.30;0.90;;;;;;;6.00;100.00;99475.91;4957494;28;20593;-68
2021/03/11 02:05:57;;;;;;;0.10;0.10;;;;;;;6.06;100.00;99466.72;4974068;28;20233;-69
2021/03/11 02:08:22;;;;;;;1.50;1.40;;;;;;;5.97;100.00;99465.69;4964974;28;20735;-70
2021/03/11 02:10:49;;;;;;;0.27;0.27;;;;;;;6.24;100.00;99463.47;4985693;28;20223;-68
2021/03/11 02:13:23;;;;;;;0.33;0.33;;;;;;;6.12;100.00;99470.22;4965382;28;20190;-68
2021/03/11 02:16:21;;;;;;;0.20;0.20;;;;;;;6.10;100.00;99469.69;4974080;28;20271;-70
2021/03/11 02:18:55;;;;;;;0.47;0.47;;;;;;;6.05;100.00;99458.94;4959618;28;20236;-72
2021/03/11 02:21:39;;;;;;;0.30;0.30;;;;;;;6.00;100.00;99438.19;4957409;28;20311;-68
2021/03/11 02:24:22;;;;;;;0.27;0.27;;;;;;;6.02;100.00;99438.72;4952750;28;20199;-68
2021/03/11 02:27:23;;;;;;;1.33;1.33;;;;;;;6.15;100.00;99449.75;4961953;28;20307;-69
2021/03/11 02:29:49;;;;;;;0.17;0.17;;;;;;;6.10;100.00;99435.50;5009893;28;20192;-68
2021/03/11 02:32:14;;;;;;;0.40;0.40;;;;;;;5.98;100.00;99426.88;5008424;28;20251;-68
2021/03/11 02:34:46;;;;;;;0.27;0.27;;;;;;;6.01;100.00;99420.97;4977251;28;20200;-69
2021/03/11 02:37:25;;;;;;;0.30;0.30;;;;;;;6.00;100.00;99407.75;4992658;28;20229;-68
2021/03/11 02:39:56;;;;;;;0.57;0.57;;;;;;;6.07;100.00;99381.34;4964329;28;20196;-69
2021/03/11 02:42:22;;;;;;;1.40;0.50;;;;;;;6.10;100.00;99368.13;4980443;28;20644;-68
2021/03/11 02:44:50;;;;;;;3.50;0.87;;;;;;;6.13;100.00;99370.25;4974061;28;20178;-68
2021/03/11 02:47:18;;;;;;;0.40;0.40;;;;;;;6.10;100.00;99370.81;4957862;28;20222;-68
2021/03/11 02:49:44;;;;;;;0.80;0.80;;;;;;;5.96;100.00;99367.06;4957398;28;20247;-69
2021/03/11 02:52:10;;;;;;;0.50;0.50;;;;;;;6.05;100.00;99373.50;4956379;28;20264;-68
2021/03/11 02:54:41;;;;;;;0.40;0.40;;;;;;;6.01;100.00;99367.06;4973341;28;20194;-68
2021/03/11 02:57:07;;;;;;;0.10;0.10;;;;;;;5.99;100.00;99344.16;4973062;28;20233;-68
2021/03/11 02:59:34;;;;;;;0.20;0.20;;;;;;;6.08;100.00;99351.41;4973473;28;20185;-68
2021/03/11 03:02:03;;;;;;;0.20;0.20;;;;;;;6.06;100.00;99332.00;4940368;28;20648;-69
2021/03/11 03:04:33;;;;;;;0.50;0.50;;;;;;;6.07;100.00;99327.44;4973416;28;20591;-69
2021/03/11 03:06:58;;;;;;;0.30;0.30;;;;;;;5.97;100.00;99322.91;4959086;28;20217;-68
2021/03/11 03:09:26;;;;;;;0.40;0.40;;;;;;;6.03;100.00;99316.41;4981885;28;20240;-69
2021/03/11 03:11:53;;;;;;;0.37;0.37;;;;;;;6.07;100.00;99327.44;4975608;28;20723;-68
2021/03/11 03:14:19;;;;;;;1.33;1.23;;;;;;;6.08;100.00;99308.31;4992868;28;20177;-69
2021/03/11 03:16:45;;;;;;;0.10;0.10;;;;;;;5.95;100.00;99303.50;5008472;28;20883;-70
2021/03/11 03:19:11;;;;;;;0.50;0.50;;;;;;;5.97;100.00;99287.88;5010309;28;20686;-70
2021/03/11 03:21:37;;;;;;;0.20;0.20;;;;;;;5.91;100.00;99288.94;4991837;28;20316;-69
2021/03/11 03:24:02;;;;;;;1.03;0.93;;;;;;;6.12;100.00;99293.19;4992167;28;20220;-68
2021/03/11 03:26:30;;;;;;;2.70;1.13;;;;;;;6.01;100.00;99275.44;4992431;28;20228;-68
2021/03/11 03:28:55;;;;;;;0.10;0.10;;;;;;;6.08;100.00;99292.13;4992691;28;20189;-68
2021/03/11 03:31:22;;;;;;;2.33;1.37;;;;;;;6.14;100.00;99278.34;4992095;28;20659;-68
2021/03/11 03:33:47;;;;;;;1.40;1.40;;;;;;;6.04;100.00;99276.78;5008190;28;20212;-68
2021/03/11 03:36:15;;;;;;;2.17;0.50;;;;;;;6.11;100.00;99270.00;5008714;28;20221;-68
2021/03/11 03:38:43;;;;;;;0.50;0.50;;;;;;;6.15;100.00;99265.66;4993495;28;20177;-68
2021/03/11 03:41:09;;;;;;;0.67;0.67;;;;;;;6.27;100.00;99253.47;4989168;28;20381;-69
2021/03/11 03:43:34;;;;;;;1.30;1.20;;;;;;;6.26;100.00;99251.06;4972772;28;20499;-68
2021/03/11 03:46:07;;;;;;;0.20;0.20;;;;;;;6.12;100.00;99247.38;4972777;28;20233;-70
2021/03/11 03:48:42;;;;;;;1.23;1.13;;;;;;;6.21;100.00;99237.63;4997832;28;20258;-68
2021/03/11 03:51:08;;;;;;;0.40;0.27;;;;;;;6.18;100.00;99243.56;4977408;28;20224;-68
2021/03/11 03:53:41;;;;;;;0.30;0.30;;;;;;;6.18;100.00;99243.56;4959436;28;20701;-68
2021/03/11 03:56:17;;;;;;;0.17;0.17;;;;;;;6.23;100.00;99240.84;4991880;28;20227;-69
2021/03/11 03:58:43;;;;;;;0.10;0.10;;;;;;;6.27;100.00;99223.03;4961147;28;20674;-69
2021/03/11 04:01:08;;;;;;;0.00;0.00;;;;;;;6.24;100.00;99228.97;4943687;28;20231;-68
2021/03/11 04:03:34;;;;;;;0.10;0.10;;;;;;;6.30;100.00;99225.16;4959443;28;20189;-69
2021/03/11 04:06:02;;;;;;;1.37;1.27;;;;;;;6.35;100.00;99217.03;4959445;28;20227;-69
2021/03/11 04:08:27;;;;;;;0.60;0.60;;;;;;;6.21;100.00;99216.06;4960179;28;20185;-69
2021/03/11 04:10:53;;;;;;;0.10;0.10;;;;;;;6.20;100.00;99206.34;4944702;28;20217;-68
2021/03/11 04:13:19;;;;;;;0.20;0.20;;;;;;;6.15;100.00;99209.91;4976708;28;21179;-69
2021/03/11 04:15:46;;;;;;;0.30;0.30;;;;;;;6.26;100.00;99200.66;4965205;28;20715;-68
2021/03/11 04:18:14;;;;;;;0.67;0.67;;;;;;;6.30;100.00;99199.00;4992126;28;20184;-68
2021/03/11 04:20:40;;;;;;;1.10;1.10;;;;;;;6.21;100.00;99205.28;4967507;28;20598;-69
2021/03/11 04:23:07;;;;;;;0.47;0.47;;;;;;;6.24;100.00;99202.00;4984024;28;20272;-68
2021/03/11 04:25:33;;;;;;;2.07;1.23;;;;;;;6.19;100.00;99188.56;4988841;28;20258;-69
2021/03/11 04:27:59;;;;;;;0.30;0.30;;;;;;;6.30;100.00;99182.00;4965183;28;20566;-70
2021/03/11 04:30:24;;;;;;;0.20;0.20;;;;;;;6.24;100.00;99172.38;4978240;28;20186;-68
2021/03/11 04:32:50;;;;;;;0.10;0.10;;;;;;;6.31;100.00;99173.66;4959307;28;20185;-69
2021/03/11 04:35:17;;;;;;;0.50;0.50;;;;;;;6.38;100.00;99176.03;4975846;28;20181;-68
2021/03/11 04:37:43;;;;;;;1.83;1.30;;;;;;;6.30;100.00;99165.84;4994770;28;20197;-70
2021/03/11 04:40:09;;;;;;;0.30;0.30;;;;;;;6.30;100.00;99161.28;4971955;28;20572;-69
2021/03/11 04:42:37;;;;;;;0.40;0.40;;;;;;;6.29;100.00;99156.16;4976931;28;20196;-68
2021/03/11 04:45:03;;;;;;;0.30;0.30;;;;;;;6.31;100.00;99151.28;4964446;28;20571;-68
2021/03/11 04:47:30;;;;;;;0.27;0.27;;;;;;;6.31;100.00;99145.91;4989740;28;20363;-69
2021/03/11 04:49:57;;;;;;;1.07;1.00;;;;;;;6.39;100.00;99131.81;4989410;28;20170;-69
2021/03/11 04:52:28;;;;;;;0.87;0.87;;;;;;;6.45;100.00;99128.00;4984676;28;20217;-68
2021/03/11 04:54:54;;;;;;;0.27;0.27;;;;;;;6.32;100.00;99121.34;4988058;28;20639;-68
2021/03/11 04:57:20;;;;;;;0.10;0.10;;;;;;;6.39;100.00;99126.41;4966410;28;20225;-70
2021/03/11 04:59:48;;;;;;;0.63;0.63;;;;;;;6.36;100.00;99106.22;4976641;28;20205;-69
2021/03/11 05:02:16;;;;;;;1.40;1.37;;;;;;;6.41;100.00;99121.53;4975183;28;20233;-68
2021/03/11 05:04:45;;;;;;;0.10;0.10;;;;;;;6.47;100.00;99107.75;4960196;28;20193;-68
2021/03/11 05:07:14;;;;;;;0.40;0.40;;;;;;;6.60;100.00;99107.88;4959339;28;20241;-69
2021/03/11 05:09:41;;;;;;;0.50;0.50;;;;;;;6.45;100.00;99103.72;4989911;28;20186;-68
2021/03/11 05:12:08;;;;;;;0.17;0.17;;;;;;;6.50;100.00;99095.56;4989001;28;20247;-69
2021/03/11 05:14:33;;;;;;;0.20;0.20;;;;;;;6.58;100.00;99093.09;4978944;28;20300;-68
2021/03/11 05:16:59;;;;;;;0.10;0.10;;;;;;;6.55;100.00;99078.25;4962167;28;20306;-68
2021/03/11 05:19:25;;;;;;;1.00;1.00;;;;;;;6.51;100.00;99078.31;4978659;28;20654;-68
2021/03/11 05:21:50;;;;;;;0.10;0.10;;;;;;;6.64;100.00;99075.75;4977221;28;20243;-69
2021/03/11 05:24:16;;;;;;;0.53;0.53;;;;;;;6.52;100.00;99073.44;4977740;28;20290;-69
2021/03/11 05:26:41;;;;;;;0.10;0.10;;;;;;;6.58;100.00;99061.50;5014453;28;20229;-68
2021/03/11 05:29:07;;;;;;;1.07;1.07;;;;;;;6.69;100.00;99075.72;5014852;28;20193;-68
2021/03/11 05:31:32;;;;;;;0.30;0.30;;;;;;;6.64;100.00;99063.06;4980246;28;20225;-68
2021/03/11 05:33:58;;;;;;;0.17;0.17;;;;;;;6.60;100.00;99064.72;4980662;28;20185;-68
2021/03/11 05:36:28;;;;;;;0.30;0.30;;;;;;;6.69;100.00;99062.22;4979881;28;20278;-68
2021/03/11 05:38:53;;;;;;;2.00;0.40;;;;;;;6.69;100.00;99052.22;4996057;28;20197;-68
2021/03/11 05:41:19;;;;;;;0.20;0.20;;;;;;;6.64;100.00;99052.28;5003418;28;20660;-68
2021/03/11 05:43:47;;;;;;;0.57;0.57;;;;;;;6.78;100.00;99045.13;4977720;28;20193;-68
2021/03/11 05:46:15;;;;;;;0.63;0.63;;;;;;;6.72;100.00;99040.88;4968590;28;20225;-69
2021/03/11 05:48:40;;;;;;;0.10;0.10;;;;;;;6.95;100.00;99030.06;4975713;28;20197;-68
2021/03/11 05:51:10;;;;;;;0.20;0.20;;;;;;;6.76;100.00;99033.81;4992165;28;20314;-69
2021/03/11 05:53:36;;;;;;;0.57;0.57;;;;;;;6.85;100.00;99018.59;4961854;28;20276;-69
2021/03/11 05:56:02;;;;;;;0.10;0.10;;;;;;;6.86;100.00;99030.19;4969431;28;20209;-68
2021/03/11 05:58:31;;;;;;;0.97;0.63;;;;;;;6.93;100.00;99007.16;4976254;28;20288;-68
2021/03/11 06:00:57;;;;;;;0.20;0.20;;;;;;;6.78;100.00;99018.16;4983055;28;20758;-69
2021/03/11 06:03:26;;;;;;;0.13;0.13;;;;;;;6.86;100.00;99019.41;4985194;28;20333;-69
2021/03/11 06:05:52;;;;;;;0.33;0.33;;;;;;;6.96;100.00;99002.00;4965641;28;20300;-68
2021/03/11 06:08:19;;;;;;;0.40;0.40;;;;;;;7.06;100.00;98993.75;4990133;28;20241;-68
2021/03/11 06:10:44;;;;;;;0.13;0.13;;;;;;;6.93;100.00;98988.28;4976610;28;20240;-70
2021/03/11 06:13:10;;;;;;;0.63;0.63;;;;;;;7.03;100.00;98977.34;4953060;28;20695;-70
2021/03/11 06:15:36;;;;;;;0.10;0.10;;;;;;;6.98;100.00;98986.31;4983047;28;20224;-69
2021/03/11 06:18:06;;;;;;;0.60;0.60;;;;;;;7.07;100.00;98970.25;4982520;28;20197;-72
2021/03/11 06:20:32;;;;;;;0.10;0.10;;;;;;;7.07;100.00;98962.16;4984642;28;20247;-71
2021/03/11 06:22:57;;;;;;;0.20;0.20;;;;;;;7.02;100.00;98964.94;4958620;28;20904;-70
2021/03/11 06:25:25;;;;;;;0.10;0.10;;;;;;;6.94;100.00;98960.19;4975285;28;20210;-70
2021/03/11 06:27:50;;;;;;;0.43;0.43;;;;;;;7.01;100.00;98953.38;4961534;28;20254;-70
2021/03/11 06:30:31;;;;;;;0.10;0.10;;;;;;;7.09;100.00;98954.59;4967851;28;20659;-69
2021/03/11 06:32:59;;;;;;;0.10;0.10;;;;;;;7.14;100.00;98958.03;4997865;28;20182;-69
2021/03/11 06:35:27;;;;;;;1.67;1.57;;;;;;;7.11;100.00;98949.72;5001050;28;20305;-69
2021/03/11 06:37:55;;;;;;;0.20;0.20;;;;;;;7.11;100.00;98936.22;4970853;28;20209;-69
2021/03/11 06:40:25;;;;;;;0.50;0.50;;;;;;;7.16;100.00;98938.81;4980669;28;20174;-69
2021/03/11 06:42:51;;;;;;;0.00;0.00;;;;;;;7.12;100.00;98927.81;4962014;28;20280;-69
2021/03/11 06:45:27;;;;;;;0.47;0.47;;;;;;;7.14;100.00;98927.53;4967566;28;20315;-70
2021/03/11 06:48:12;;;;;;;0.10;0.10;;;;;;;7.26;100.00;98927.91;4978195;28;20212;-69
2021/03/11 06:50:37;;;;;;;0.10;0.10;;;;;;;7.28;100.00;98916.50;5009051;28;20222;-71
2021/03/11 06:53:03;;;;;;;0.10;0.10;;;;;;;7.24;100.00;98919.28;4991995;28;20235;-71
2021/03/11 06:55:29;;;;;;;0.00;0.00;;;;;;;7.19;100.00;98917.44;5008979;28;20270;-69
2021/03/11 06:57:54;;;;;;;0.00;0.00;;;;;;;7.33;100.00;98908.31;5025686;28;20614;-71
2021/03/11 07:00:24;;;;;;;0.37;0.37;;;;;;;7.24;100.00;98920.09;4992914;28;20205;-69
2021/03/11 07:02:51;;;;;;;0.10;0.10;;;;;;;7.26;100.00;98912.50;4975465;28;20228;-70
2021/03/11 07:05:17;;;;;;;0.00;0.00;;;;;;;7.36;100.00;98907.75;4976260;28;20198;-70
2021/03/11 07:07:45;;;;;;;0.20;0.20;;;;;;;7.46;100.00;98904.09;4992891;28;20217;-69
2021/03/11 07:10:24;;;;;;;0.47;0.47;;;;;;;7.44;100.00;98893.56;4976151;28;20181;-69
2021/03/11 07:12:53;;;;;;;0.10;0.10;;;;;;;7.48;100.00;98889.19;4973193;28;20227;-71
2021/03/11 07:15:22;;;;;;;0.43;0.43;;;;;;;7.36;100.00;98885.31;4957197;28;20208;-69
2021/03/11 07:17:49;;;;;;;0.10;0.10;;;;;;;7.47;100.00;98876.78;4973503;28;20240;-69
2021/03/11 07:20:25;;;;;;;0.10;0.10;;;;;;;7.37;100.00;98887.72;4973012;28;20272;-70
2021/03/11 07:23:06;;;;;;;0.10;0.10;;;;;;;7.52;100.00;98876.69;4972249;28;20213;-71
2021/03/11 07:25:32;;;;;;;0.10;0.10;;;;;;;7.44;100.00;98882.78;4973319;28;20237;-69
2021/03/11 07:27:59;;;;;;;0.10;0.10;;;;;;;7.50;100.00;98881.56;4957080;28;20263;-69
2021/03/11 07:30:25;;;;;;;0.00;0.00;;;;;;;7.65;100.00;98877.81;4973004;28;20723;-70
2021/03/11 07:33:02;;;;;;;0.70;0.70;;;;;;;7.60;100.00;98854.41;4988932;28;20648;-69
2021/03/11 07:35:29;;;;;;;0.57;0.57;;;;;;;7.52;100.00;98860.47;4988754;28;20217;-70
2021/03/11 07:37:59;;;;;;;0.30;0.30;;;;;;;7.63;100.00;98856.50;4975541;28;20402;-70
2021/03/11 07:40:26;;;;;;;0.30;0.30;;;;;;;7.57;100.00;98851.50;4957344;28;20217;-70
2021/03/11 07:42:54;;;;;;;0.23;0.23;;;;;;;7.59;100.00;98855.50;4975816;28;20272;-69
2021/03/11 07:45:27;;;;;;;0.13;0.13;;;;;;;7.63;100.00;98853.81;5009138;28;20224;-68
2021/03/11 07:47:52;;;;;;;0.20;0.20;;;;;;;7.74;100.00;98855.22;5012577;28;20213;-68
2021/03/11 07:50:20;;;;;;;0.10;0.10;;;;;;;7.65;100.00;98848.09;4979355;28;20200;-70
2021/03/11 07:52:46;;;;;;;0.30;0.30;;;;;;;7.59;100.00;98846.59;4980134;28;20185;-69
2021/03/11 07:55:14;;;;;;;0.53;0.53;;;;;;;7.69;100.00;98847.19;4995634;28;20185;-70
2021/03/11 07:57:49;;;;;;;0.47;0.47;;;;;;;7.77;100.00;98839.22;4992649;28;20718;-69
2021/03/11 08:00:23;;;;;;;0.50;0.50;;;;;;;7.74;100.00;98836.31;4959878;28;20255;-69
2021/03/11 08:03:00;;;;;;;0.20;0.20;;;;;;;7.90;100.00;98822.22;4975691;28;20178;-71
2021/03/11 08:05:27;;;;;;;0.07;0.07;;;;;;;7.88;100.00;98812.81;4959999;28;20217;-69
2021/03/11 08:08:12;;;;;;;0.17;0.17;;;;;;;7.92;100.00;98824.63;4996102;28;20232;-71
2021/03/11 08:10:51;;;;;;;0.00;0.00;;;;;;;7.92;100.00;98832.75;4971165;28;20240;-70
2021/03/11 08:13:29;;;;;;;0.30;0.30;;;;;;;7.95;100.00;98819.44;4996586;28;20211;-69
2021/03/11 08:15:59;;;;;;;0.30;0.30;;;;;;;7.99;100.00;98814.22;5012899;28;20740;-69
2021/03/11 08:18:34;;;;;;;0.13;0.13;;;;;;;8.09;100.00;98804.84;4979667;28;20169;-69
2021/03/11 08:21:03;;;;;;;0.13;0.13;;;;;;;8.02;100.00;98791.97;4995305;28;20789;-69
2021/03/11 08:23:35;;;;;;;0.03;0.03;;;;;;;8.12;100.00;98801.53;4978994;28;20560;-69
2021/03/11 08:26:06;;;;;;;0.83;0.83;;;;;;;8.29;100.00;98790.88;4963347;28;20228;-69
2021/03/11 08:28:32;;;;;;;0.17;0.17;;;;;;;8.20;100.00;98790.00;4963535;28;20211;-70
2021/03/11 08:31:02;;;;;;;0.30;0.30;;;;;;;8.12;100.00;98781.81;5012591;28;20600;-69
2021/03/11 08:33:28;;;;;;;0.10;0.10;;;;;;;8.32;100.00;98776.75;4962930;28;20293;-68
2021/03/11 08:35:56;;;;;;;1.47;1.37;;;;;;;8.43;100.00;98767.31;5012174;28;20252;-69
2021/03/11 08:38:27;;;;;;;0.20;0.20;;;;;;;8.43;100.00;98777.34;4961531;28;20706;-71
2021/03/11 08:41:10;;;;;;;0.10;0.10;;;;;;;8.49;100.00;98756.06;4994791;28;20224;-69
2021/03/11 08:43:39;;;;;;;0.30;0.30;;;;;;;8.66;100.00;98744.59;5025135;28;20211;-69
2021/03/11 08:46:13;;;;;;;0.20;0.20;;;;;;;8.82;100.00;98737.72;4994848;28;20778;-68
2021/03/11 08:48:42;;;;;;;0.37;0.37;;;;;;;9.21;100.00;98736.72;4979501;28;20254;-70
2021/03/11 08:51:17;;;;;;;0.10;0.10;;;;;;;9.21;100.00;98731.28;4994309;28;20231;-69
2021/03/11 08:53:50;;;;;;;0.10;0.10;;;;;;;9.28;100.00;98712.69;5010762;28;20181;-69
2021/03/11 08:56:18;;;;;;;5.60;4.13;;;;;;;9.26;100.00;98713.00;4975092;28;20317;-70
2021/03/11 08:59:05;;;;;;;6.97;5.50;;;;;;;9.12;100.00;98711.50;5004304;28;20213;-70
2021/03/11 09:01:38;;;;;;;5.90;5.30;;;;;;;9.26;100.00;98706.78;4996630;28;20220;-69
2021/03/11 09:04:27;;;;;;;6.33;5.40;;;;;;;9.30;100.00;98696.94;4978695;28;20263;-68
2021/03/11 09:06:58;;;;;;;6.27;5.47;;;;;;;9.61;100.00;98688.47;5012279;28;20229;-69
2021/03/11 09:09:35;;;;;;;5.57;4.53;;;;;;;9.60;100.00;98681.44;4971243;28;20205;-69
2021/03/11 09:12:02;;;;;;;7.00;5.43;;;;;;;9.49;100.00;98694.81;4988884;28;20228;-69
2021/03/11 09:14:33;;;;;;;6.00;5.17;;;;;;;9.74;100.00;98700.28;4996102;28;20177;-68
2021/03/11 09:17:09;;;;;;;6.13;5.00;;;;;;;9.65;100.00;98686.72;5011077;28;20227;-69
2021/03/11 09:20:00;;;;;;;5.03;4.10;;;;;;;9.66;100.00;98690.22;4994671;28;20188;-71
2021/03/11 09:22:33;;;;;;;4.50;3.63;;;;;;;9.67;100.00;98692.63;4991800;28;20235;-68
2021/03/11 09:25:13;;;;;;;6.13;4.17;;;;;;;9.74;100.00;98678.59;4978494;28;20193;-68
2021/03/11 09:27:59;;;;;;;7.70;3.80;;;;;;;9.71;100.00;98655.66;4994583;28;20308;-69
2021/03/11 09:30:29;;;;;;;3.77;3.10;;;;;;;9.77;100.00;98661.72;4978765;28;20678;-70
2021/03/11 09:32:55;;;;;;;4.50;3.67;;;;;;;9.78;100.00;98655.16;4977447;28;20224;-69
2021/03/11 09:35:23;;;;;;;4.37;3.40;;;;;;;9.78;100.00;98649.75;4977822;28;20231;-70
2021/03/11 09:37:51;;;;;;;3.27;2.97;;;;;;;9.85;100.00;98655.50;4978690;28;20205;-69
2021/03/11 09:40:35;;;;;;;3.50;3.20;;;;;;;9.86;100.00;98668.75;5001297;28;20173;-70
2021/03/11 09:43:14;;;;;;;5.63;3.40;;;;;;;9.93;100.00;98655.56;4973754;28;20259;-69
2021/03/11 09:45:47;;;;;;;3.67;3.10;;;;;;;9.95;100.00;98666.09;4974165;28;20224;-69
2021/03/11 09:48:29;;;;;;;3.10;2.80;;;;;;;10.03;100.00;98660.69;4995006;28;20663;-71
2021/03/11 09:50:55;;;;;;;3.83;2.90;;;;;;;9.96;100.00;98643.28;4974632;28;20316;-69
2021/03/11 09:53:24;;;;;;;4.53;3.47;;;;;;;9.97;100.00;98645.69;4974344;28;20185;-69
2021/03/11 09:55:54;;;;;;;4.13;3.20;;;;;;;9.87;100.00;98643.25;4938966;28;20248;-68
2021/03/11 09:58:24;;;;;;;3.27;2.90;;;;;;;9.91;100.00;98644.25;4924090;28;20679;-70
2021/03/11 10:00:50;;;;;;;3.23;2.93;;;;;;;10.03;100.00;98642.50;4960282;28;20217;-70
2021/03/11 10:03:36;;;;;;;3.27;2.97;;;;;;;10.13;100.00;98652.25;4957752;28;20181;-70
2021/03/11 10:06:05;;;;;;;3.63;2.67;;;;;;;10.22;100.00;98639.47;4991923;28;20244;-70
2021/03/11 10:08:38;;;;;;;4.63;2.70;;;;;;;10.45;100.00;98644.44;4967902;28;20849;-69
2021/03/11 10:11:10;;;;;;;3.23;2.87;;;;;;;10.51;100.00;98627.69;5021677;28;20220;-69
2021/03/11 10:13:38;;;;;;;3.17;2.57;;;;;;;10.35;100.00;98622.22;4996802;28;20623;-70
2021/03/11 10:16:06;;;;;;;2.77;2.50;;;;;;;10.37;100.00;98617.31;5030457;28;20725;-70
2021/03/11 10:18:32;;;;;;;4.23;2.53;;;;;;;10.41;100.00;98602.78;5013729;28;20236;-69
2021/03/11 10:20:59;;;;;;;2.97;2.70;;;;;;;10.59;100.00;98583.44;4973470;28;20224;-68
2021/03/11 10:23:27;;;;;;;2.57;2.23;;;;;;;10.82;100.00;98595.66;4976798;28;20173;-68
2021/03/11 10:26:16;;;;;;;2.60;2.40;;;;;;;10.77;100.00;98576.84;5009507;28;20232;-69
2021/03/11 10:28:44;;;;;;;2.57;2.37;;;;;;;10.90;100.00;98584.00;5011686;28;20204;-69
2021/03/11 10:31:11;;;;;;;2.60;2.30;;;;;;;10.74;100.00;98578.28;5003267;28;20270;-69
2021/03/11 10:33:38;;;;;;;2.93;2.33;;;;;;;10.63;100.00;98570.00;5013635;28;20280;-70
2021/03/11 10:36:23;;;;;;;2.57;2.20;;;;;;;10.64;100.00;98575.13;4981369;28;20262;-70
2021/03/11 10:39:24;;;;;;;4.00;2.20;;;;;;;10.67;100.00;98566.31;5025572;28;20980;-69
2021/03/11 10:41:57;;;;;;;3.90;2.50;;;;;;;10.86;100.00;98553.97;4910773;29;20237;-71
2021/03/11 10:44:25;;;;;;;2.70;2.50;;;;;;;10.93;100.00;98569.75;5001592;28;20668;-70
2021/03/11 10:46:50;;;;;;;3.20;2.73;;;;;;;11.36;100.00;98544.78;4981139;28;20235;-70
2021/03/11 10:49:16;;;;;;;2.93;2.60;;;;;;;11.60;100.00;98545.75;4997401;28;20192;-71
2021/03/11 10:51:44;;;;;;;3.10;2.80;;;;;;;11.81;100.00;98529.47;4980141;28;20215;-69
2021/03/11 10:54:29;;;;;;;3.47;2.40;;;;;;;11.91;100.00;98516.28;4997779;28;20193;-68
2021/03/11 10:57:11;;;;;;;3.60;2.90;;;;;;;11.97;100.00;98502.13;4996408;28;20243;-69
2021/03/11 10:59:49;;;;;;;4.60;2.60;;;;;;;11.79;100.00;98497.16;4980199;28;20184;-69
2021/03/11 11:02:17;;;;;;;3.70;2.70;;;;;;;12.02;100.00;98485.59;4994403;28;20322;-70
2021/03/11 11:04:43;;;;;;;3.67;2.40;;;;;;;11.92;100.00;98483.28;4976962;28;20177;-70
2021/03/11 11:07:09;;;;;;;4.47;2.63;;;;;;;11.80;100.00;98476.22;4973509;28;20247;-68
2021/03/11 11:09:34;;;;;;;7.43;3.13;;;;;;;12.10;100.00;98471.09;4984797;28;20192;-70
2021/03/11 11:12:00;;;;;;;5.33;2.60;;;;;;;12.33;97.60;98453.28;4965980;28;20233;-69
2021/03/11 11:14:29;;;;;;;3.20;2.50;;;;;;;12.52;97.38;98445.34;4989146;28;20189;-69
2021/03/11 11:16:55;;;;;;;5.40;2.87;;;;;;;12.55;96.87;98434.59;4973079;28;20612;-69
2021/03/11 11:19:20;;;;;;;5.33;3.07;;;;;;;12.89;97.64;98407.75;4973567;28;20232;-69
2021/03/11 11:21:46;;;;;;;6.33;3.20;;;;;;;12.91;93.43;98404.66;4970998;28;20222;-69
2021/03/11 11:24:11;;;;;;;3.67;2.70;;;;;;;13.04;94.50;98409.78;4973049;28;20240;-70
2021/03/11 11:26:37;;;;;;;7.37;3.10;;;;;;;13.13;92.86;98394.06;4972451;28;20234;-69
2021/03/11 11:29:05;;;;;;;6.03;2.87;;;;;;;13.21;91.53;98398.59;4957262;28;20178;-69
2021/03/11 11:31:32;;;;;;;3.90;2.60;;;;;;;13.04;90.65;98404.31;4988957;28;20225;-70
2021/03/11 11:33:58;;;;;;;4.23;3.10;;;;;;;13.09;90.06;98395.88;4989614;28;20176;-69
2021/03/11 11:36:24;;;;;;;5.20;2.70;;;;;;;13.30;89.75;98397.34;4972958;28;20231;-68
2021/03/11 11:38:52;;;;;;;4.37;2.67;;;;;;;13.33;89.68;98385.75;4937012;28;20570;-67
2021/03/11 11:41:19;;;;;;;4.30;2.73;;;;;;;13.15;86.45;98378.19;4984932;28;20695;-68